ADDS METAR Data INFO
IDs: Format: Raw Decoded Include TAF

Data at: 1530 UTC 18 Jun 2018

KBQP 181515Z AUTO 13005KT 7SM SCT022 30/25 A3011 RMK AO2 T02960252
KBQP 181455Z AUTO 16006KT 7SM SCT018 29/25 A3011 RMK AO2 T02930252
KBQP 181435Z AUTO 15006KT 7SM CLR 29/25 A3011 RMK AO2 T02870254
KBQP 181415Z AUTO 11006KT 10SM CLR 29/25 A3011 RMK AO2 T02850254
KBQP 181355Z AUTO 13005KT 10SM CLR 28/26 A3011 RMK AO2 T02790256
KBQP 181335Z AUTO 11004KT 10SM CLR 27/25 A3011 RMK AO2 T02680254
KBQP 181315Z AUTO 11005KT 10SM CLR 26/25 A3010 RMK AO2 T02600247
KBQP 181255Z AUTO 08004KT 10SM SCT110 25/24 A3010 RMK AO2 T02500244
KBQP 181235Z AUTO 08003KT 10SM BKN110 24/23 A3010 RMK AO2 T02370233
KBQP 181215Z AUTO 00000KT 10SM BKN110 24/23 A3009 RMK AO2 T02350231
KBQP 181155Z AUTO 10003KT 10SM BKN110 23/23 A3009 RMK AO2 T02300226 10240 20207
KBQP 181135Z AUTO 08003KT 7SM OVC110 22/22 A3009 RMK AO2 T02230220
KBQP 181115Z AUTO 12003KT 7SM SCT110 22/21 A3008 RMK AO2 T02150212
KBQP 181055Z AUTO 00000KT 10SM CLR 21/21 A3008 RMK AO2 T02120209
KBQP 181035Z AUTO 00000KT 10SM CLR 21/21 A3008 RMK AO2 T02130210
KBQP 181015Z AUTO 00000KT 10SM CLR 21/21 A3007 RMK AO2 T02120210
KBQP 180955Z AUTO 00000KT 10SM CLR 21/21 A3006 RMK AO2 T02100206
KBQP 180935Z AUTO 00000KT 7SM CLR 21/21 A3006 RMK AO2 T02080205
KBQP 180915Z AUTO 00000KT 7SM CLR 21/21 A3006 RMK AO2 T02080205
KBQP 180855Z AUTO 00000KT 10SM SCT100 21/21 A3006 RMK AO2 T02120208
KBQP 180835Z AUTO 00000KT 7SM SCT100 21/21 A3007 RMK AO2 T02100207
KBQP 180815Z AUTO 00000KT 7SM CLR 21/21 A3006 RMK AO2 T02100207
KBQP 180755Z AUTO 00000KT 7SM CLR 21/21 A3006 RMK AO2 T02130210
KBQP 180735Z AUTO 00000KT 7SM CLR 21/21 A3006 RMK AO2 T02130210
KBQP 180715Z AUTO 00000KT 10SM CLR 22/22 A3006 RMK AO2 T02200215
KBQP 180655Z AUTO 00000KT 10SM CLR 22/22 A3007 RMK AO2 T02210218
KBQP 180635Z AUTO 00000KT 10SM CLR 23/22 A3007 RMK AO2 T02250220
KBQP 180615Z AUTO 00000KT 10SM CLR 24/23 A3008 RMK AO2 T02350230
KBQP 180555Z AUTO 00000KT 10SM CLR 24/23 A3008 RMK AO2 T02420228 10297 20242 403280222
KBQP 180535Z AUTO 00000KT 10SM CLR 25/22 A3009 RMK AO2 T02490222
KBQP 180515Z AUTO 00000KT 10SM CLR 25/22 A3009 RMK AO2 T02510221
KBQP 180455Z AUTO 00000KT 10SM CLR 26/22 A3009 RMK AO2 T02570216
KBQP 180435Z AUTO 17004KT 10SM CLR 26/22 A3009 RMK AO2 T02610217
KBQP 180415Z AUTO 17005KT 10SM CLR 26/22 A3009 RMK AO2 T02630224
KBQP 180355Z AUTO 00000KT 10SM CLR 25/25 A3009 RMK AO2 T02530248
KBQP 180335Z AUTO 00000KT 10SM CLR 25/25 A3008 RMK AO2 T02500246
KBQP 180315Z AUTO 00000KT 10SM CLR 25/25 A3008 RMK AO2 T02500247
KBQP 180255Z AUTO 09003KT 10SM CLR 25/25 A3007 RMK AO2 T02510247
KBQP 180235Z AUTO 00000KT 10SM CLR 25/25 A3007 RMK AO2 T02520248
KBQP 180215Z AUTO 00000KT 10SM CLR 25/25 A3006 RMK AO2 T02540250
KBQP 180155Z AUTO 11003KT 10SM SCT075 26/25 A3005 RMK AO2 T02570253
KBQP 180135Z AUTO 09003KT 10SM SCT075 26/25 A3005 RMK AO2 T02600253
KBQP 180115Z AUTO 00000KT 10SM SCT065 27/25 A3005 RMK AO2 T02660247
KBQP 180055Z AUTO 00000KT 10SM SCT050 BKN065 27/24 A3004 RMK AO2 T02740243
KBQP 180035Z AUTO 00000KT 10SM BKN055 BKN065 28/24 A3004 RMK AO2 T02810237
KBQP 180015Z AUTO 00000KT 10SM BKN055 29/23 A3003 RMK AO2 T02890229
KBQP 172355Z AUTO 11003KT 10SM CLR 30/23 A3003 RMK AO2 LTG DSNT NE T02980230 10328 20295
KBQP 172335Z AUTO 10003KT 10SM CLR 30/23 A3002 RMK AO2 T02990231
KBQP 172315Z AUTO 09004KT 10SM SCT080 SCT100 30/23 A3002 RMK AO2 T02980232
KBQP 172255Z AUTO 00000KT 10SM -RA BKN042 BKN060 OVC100 30/23 A3002 RMK AO2 T02950227
KBQP 172235Z AUTO 14006KT 10SM BKN046 32/22 A3002 RMK AO2 T03190219
KBQP 172215Z AUTO 11004KT 10SM CLR 32/22 A3002 RMK AO2 T03240215
KBQP 172155Z AUTO 15005KT 10SM SCT110 32/22 A3002 RMK AO2 LTG DSNT E T03240221
KBQP 172135Z AUTO 14003KT 10SM BKN110 31/22 A3002 RMK AO2 T03080222
KBQP 172115Z AUTO 11007KT 10SM OVC110 32/21 A3003 RMK AO2 T03220214
KBQP 172055Z AUTO 13005KT 10SM BKN120 32/22 A3004 RMK AO2 T03180222
KBQP 172035Z AUTO 11006KT 10SM SCT100 32/23 A3004 RMK AO2 T03150229
KBQP 172015Z AUTO 12008KT 070V160 10SM SCT065 BKN090 32/23 A3004 RMK AO2 T03170234
KBQP 171955Z AUTO 14003KT 10SM SCT044 SCT050 BKN090 30/22 A3004 RMK AO2 T03040224
KBQP 171935Z AUTO 15005KT 10SM SCT046 SCT065 BKN090 33/22 A3004 RMK AO2 T03270220
KBQP 171915Z AUTO 14003KT 10SM SCT039 BKN045 OVC060 31/22 A3004 RMK AO2 T03120219
KBQP 171855Z AUTO 14003KT 10SM SCT040 BKN046 BKN050 32/23 A3005 RMK AO2 T03150227
KBQP 171835Z AUTO 13003KT 10SM SCT040 SCT048 33/22 A3005 RMK AO2 T03250222
KBQP 171815Z AUTO 12006KT 10SM SCT035 SCT046 SCT080 32/23 A3006 RMK AO2 T03150227
KBQP 171755Z AUTO 18003KT 10SM SCT035 SCT043 SCT070 32/23 A3006 RMK AO2 T03150226 10317 20234
KBQP 171735Z AUTO 14004KT 10SM SCT034 SCT075 BKN100 32/23 A3007 RMK AO2 T03150225
KBQP 171715Z AUTO 11006KT 10SM SCT034 SCT040 SCT048 31/23 A3007 RMK AO2 T03110226
KBQP 171655Z AUTO 15006KT 10SM SCT029 SCT039 SCT050 31/23 A3008 RMK AO2 T03070226
KBQP 171635Z AUTO 12003KT 10SM BKN029 BKN035 OVC050 29/24 A3009 RMK AO2 T02930237
KBQP 171615Z AUTO 12004KT 10SM SCT027 SCT034 BKN043 30/23 A3009 RMK AO2 T03030228
KBQP 171555Z AUTO 14003KT 10SM BKN027 BKN037 BKN055 29/24 A3009 RMK AO2 T02940240
KBQP 171535Z AUTO 16003KT 10SM SCT024 SCT030 BKN037 29/23 A3008 RMK AO2 T02920233
KBQP 171515Z AUTO 14004KT 10SM SCT022 SCT028 SCT033 29/24 A3008 RMK AO2 T02900238
KBQP 171455Z AUTO 12003KT 10SM SCT019 BKN025 30/24 A3008 RMK AO2 T02980244
KBQP 171435Z AUTO 16003KT 10SM SCT017 SCT023 29/25 A3008 RMK AO2 T02870246
KBQP 171415Z AUTO 11004KT 10SM SCT015 29/25 A3008 RMK AO2 T02870252
KBQP 171355Z AUTO 09005KT 10SM CLR 28/26 A3008 RMK AO2 T02800258
KBQP 171335Z AUTO 11004KT 10SM CLR 28/26 A3007 RMK AO2 T02750257
KBQP 171315Z AUTO 00000KT 10SM CLR 27/26 A3007 RMK AO2 T02670260
KBQP 171255Z AUTO 00000KT 10SM CLR 26/26 A3007 RMK AO2 T02600256
KBQP 171230Z AUTO 00000KT 10SM CLR 25/25 A3006 RMK AO2 T02520249
KBQP 171215Z AUTO 09003KT 10SM CLR 25/24 A3006 RMK AO2 LTG DSNT E T02450241
KBQP 171155Z AUTO 00000KT 5SM BR CLR 23/23 A3004 RMK AO2 T02330230 10235 20222
KBQP 171135Z AUTO 09003KT 5SM BR CLR 23/22 A3004 RMK AO2 T02250221
KBQP 171115Z AUTO 00000KT 5SM BR CLR 22/22 A3004 RMK AO2 T02220220
KBQP 171055Z AUTO 09003KT 5SM BR CLR 22/22 A3004 RMK AO2 T02220220
KBQP 171035Z AUTO 00000KT 7SM CLR 23/22 A3002 RMK AO2 T02260222
KBQP 171015Z AUTO 00000KT 5SM BR CLR 23/23 A3002 RMK AO2 T02280225
KBQP 170955Z AUTO 00000KT 10SM CLR 23/23 A3002 RMK AO2 T02280225
KBQP 170935Z AUTO 00000KT 10SM CLR 23/22 A3002 RMK AO2 T02270223
KBQP 170915Z AUTO 00000KT 10SM CLR 23/22 A3002 RMK AO2 T02270224
KBQP 170855Z AUTO 00000KT 10SM CLR 23/23 A3002 RMK AO2 T02300225
KBQP 170835Z AUTO 00000KT 10SM CLR 23/23 A3001 RMK AO2 T02280225
KBQP 170815Z AUTO 00000KT 10SM CLR 23/23 A3001 RMK AO2 T02300225
KBQP 170755Z AUTO 00000KT 10SM CLR 23/23 A3001 RMK AO2 T02280225
KBQP 170735Z AUTO 00000KT 10SM CLR 23/23 A3001 RMK AO2 T02300227
KBQP 170715Z AUTO 00000KT 10SM CLR 23/23 A3001 RMK AO2 T02300227
KBQP 170655Z AUTO 00000KT 10SM CLR 23/23 A3002 RMK AO2 T02330230
KBQP 170635Z AUTO 00000KT 10SM CLR 23/23 A3002 RMK AO2 T02320229
KBQP 170615Z AUTO 00000KT 10SM CLR 23/23 A3002 RMK AO2 T02310228
KBQP 170555Z AUTO 00000KT 10SM CLR 24/23 A3002 RMK AO2 T02350231 10317 20235 403350222
KBQP 170535Z AUTO 00000KT 10SM CLR 24/23 A3002 RMK AO2 T02380234
KBQP 170515Z AUTO 00000KT 10SM CLR 24/24 A3002 RMK AO2 T02390235
KBQP 170455Z AUTO 00000KT 10SM CLR 25/24 A3002 RMK AO2 T02450240
KBQP 170435Z AUTO 00000KT 10SM CLR 25/24 A3001 RMK AO2 T02460242
KBQP 170415Z AUTO 00000KT 10SM CLR 25/24 A3001 RMK AO2 T02510239
KBQP 170355Z AUTO 00000KT 10SM CLR 25/24 A3001 RMK AO2 T02530237
KBQP 170335Z AUTO 19003KT 10SM CLR 26/23 A3000 RMK AO2 T02600232